sensor_id;sensor_type;location;lat;lon;timestamp;temperature;humidity
47382;DHT22;33128;51.580;5.170;2023-06-14T00:00:17;17.80;90.40
47382;DHT22;33128;51.580;5.170;2023-06-14T00:02:43;17.90;90.40
47382;DHT22;33128;51.580;5.170;2023-06-14T00:05:09;18.00;90.50
47382;DHT22;33128;51.580;5.170;2023-06-14T00:07:36;17.60;90.40
47382;DHT22;33128;51.580;5.170;2023-06-14T00:10:03;17.40;90.60
47382;DHT22;33128;51.580;5.170;2023-06-14T00:12:30;17.30;90.90
47382;DHT22;33128;51.580;5.170;2023-06-14T00:14:56;17.20;91.00
47382;DHT22;33128;51.580;5.170;2023-06-14T00:17:22;17.30;90.80
47382;DHT22;33128;51.580;5.170;2023-06-14T00:19:48;17.30;90.70
47382;DHT22;33128;51.580;5.170;2023-06-14T00:22:13;17.40;90.40
47382;DHT22;33128;51.580;5.170;2023-06-14T00:24:39;17.50;90.50
47382;DHT22;33128;51.580;5.170;2023-06-14T00:27:05;17.20;90.60
47382;DHT22;33128;51.580;5.170;2023-06-14T00:29:30;17.20;90.40
47382;DHT22;33128;51.580;5.170;2023-06-14T00:31:56;17.50;90.50
47382;DHT22;33128;51.580;5.170;2023-06-14T00:34:22;17.40;90.20
47382;DHT22;33128;51.580;5.170;2023-06-14T00:36:47;17.60;90.00
47382;DHT22;33128;51.580;5.170;2023-06-14T00:39:13;17.50;89.50
47382;DHT22;33128;51.580;5.170;2023-06-14T00:41:39;17.60;88.80
47382;DHT22;33128;51.580;5.170;2023-06-14T00:44:05;17.50;90.00
47382;DHT22;33128;51.580;5.170;2023-06-14T00:46:31;17.40;89.90
47382;DHT22;33128;51.580;5.170;2023-06-14T00:48:58;17.50;90.00
47382;DHT22;33128;51.580;5.170;2023-06-14T00:51:25;17.40;89.10
47382;DHT22;33128;51.580;5.170;2023-06-14T00:53:51;17.20;90.30
47382;DHT22;33128;51.580;5.170;2023-06-14T00:56:17;17.10;90.30
47382;DHT22;33128;51.580;5.170;2023-06-14T00:58:46;17.00;89.90
47382;DHT22;33128;51.580;5.170;2023-06-14T01:01:12;16.90;89.90
47382;DHT22;33128;51.580;5.170;2023-06-14T01:03:37;17.10;89.70
47382;DHT22;33128;51.580;5.170;2023-06-14T01:06:39;17.20;88.90
47382;DHT22;33128;51.580;5.170;2023-06-14T01:09:32;17.20;89.00
47382;DHT22;33128;51.580;5.170;2023-06-14T01:12:10;17.00;89.20
47382;DHT22;33128;51.580;5.170;2023-06-14T01:14:38;16.80;89.40
47382;DHT22;33128;51.580;5.170;2023-06-14T01:17:04;16.80;90.00
47382;DHT22;33128;51.580;5.170;2023-06-14T01:19:30;16.60;89.50
47382;DHT22;33128;51.580;5.170;2023-06-14T01:22:01;16.80;89.90
47382;DHT22;33128;51.580;5.170;2023-06-14T01:24:26;16.70;88.90
47382;DHT22;33128;51.580;5.170;2023-06-14T01:26:57;16.80;88.70
47382;DHT22;33128;51.580;5.170;2023-06-14T01:29:25;16.80;89.10
47382;DHT22;33128;51.580;5.170;2023-06-14T01:31:54;16.60;89.10
47382;DHT22;33128;51.580;5.170;2023-06-14T01:34:20;16.70;88.40
47382;DHT22;33128;51.580;5.170;2023-06-14T01:36:47;16.80;87.60
47382;DHT22;33128;51.580;5.170;2023-06-14T01:39:14;16.80;87.80
47382;DHT22;33128;51.580;5.170;2023-06-14T01:41:41;16.80;88.00
47382;DHT22;33128;51.580;5.170;2023-06-14T01:44:08;16.70;87.70
47382;DHT22;33128;51.580;5.170;2023-06-14T01:46:33;16.60;88.20
47382;DHT22;33128;51.580;5.170;2023-06-14T01:48:59;16.60;87.40
47382;DHT22;33128;51.580;5.170;2023-06-14T01:51:25;16.70;87.30
47382;DHT22;33128;51.580;5.170;2023-06-14T01:53:51;16.50;87.90
47382;DHT22;33128;51.580;5.170;2023-06-14T01:56:16;16.60;87.80
47382;DHT22;33128;51.580;5.170;2023-06-14T01:58:42;16.60;87.60
47382;DHT22;33128;51.580;5.170;2023-06-14T02:01:08;16.60;87.60
47382;DHT22;33128;51.580;5.170;2023-06-14T02:03:34;16.50;87.60
47382;DHT22;33128;51.580;5.170;2023-06-14T02:06:00;16.50;87.60
47382;DHT22;33128;51.580;5.170;2023-06-14T02:08:26;16.40;88.00
47382;DHT22;33128;51.580;5.170;2023-06-14T02:10:52;16.40;88.60
47382;DHT22;33128;51.580;5.170;2023-06-14T02:13:17;16.40;88.40
47382;DHT22;33128;51.580;5.170;2023-06-14T02:15:43;16.40;88.40
47382;DHT22;33128;51.580;5.170;2023-06-14T02:18:11;16.40;88.30
47382;DHT22;33128;51.580;5.170;2023-06-14T02:20:37;16.40;88.10
47382;DHT22;33128;51.580;5.170;2023-06-14T02:23:03;16.30;88.90
47382;DHT22;33128;51.580;5.170;2023-06-14T02:25:28;16.30;89.20
47382;DHT22;33128;51.580;5.170;2023-06-14T02:27:55;16.20;89.00
47382;DHT22;33128;51.580;5.170;2023-06-14T02:30:21;16.10;89.10
47382;DHT22;33128;51.580;5.170;2023-06-14T02:32:46;16.20;88.90
47382;DHT22;33128;51.580;5.170;2023-06-14T02:35:16;16.20;89.40
47382;DHT22;33128;51.580;5.170;2023-06-14T02:37:41;16.10;89.20
47382;DHT22;33128;51.580;5.170;2023-06-14T02:40:11;16.10;89.60
47382;DHT22;33128;51.580;5.170;2023-06-14T02:42:39;16.10;90.10
47382;DHT22;33128;51.580;5.170;2023-06-14T02:45:05;16.00;90.00
47382;DHT22;33128;51.580;5.170;2023-06-14T02:47:31;15.90;89.90
47382;DHT22;33128;51.580;5.170;2023-06-14T02:49:57;16.00;89.70
47382;DHT22;33128;51.580;5.170;2023-06-14T02:52:22;16.00;90.00
47382;DHT22;33128;51.580;5.170;2023-06-14T02:54:50;16.00;90.10
47382;DHT22;33128;51.580;5.170;2023-06-14T02:57:16;16.00;90.20
47382;DHT22;33128;51.580;5.170;2023-06-14T02:59:41;15.90;90.30
47382;DHT22;33128;51.580;5.170;2023-06-14T03:02:07;15.90;90.40
47382;DHT22;33128;51.580;5.170;2023-06-14T03:04:33;15.70;90.40
47382;DHT22;33128;51.580;5.170;2023-06-14T03:07:03;15.80;90.40
47382;DHT22;33128;51.580;5.170;2023-06-14T03:09:37;15.70;90.60
47382;DHT22;33128;51.580;5.170;2023-06-14T03:12:04;15.70;90.80
47382;DHT22;33128;51.580;5.170;2023-06-14T03:14:30;15.60;91.00
47382;DHT22;33128;51.580;5.170;2023-06-14T03:16:56;15.60;90.90
47382;DHT22;33128;51.580;5.170;2023-06-14T03:19:23;15.70;90.90
47382;DHT22;33128;51.580;5.170;2023-06-14T03:21:52;15.60;90.90
47382;DHT22;33128;51.580;5.170;2023-06-14T03:24:19;15.50;91.00
47382;DHT22;33128;51.580;5.170;2023-06-14T03:26:45;15.50;91.20
47382;DHT22;33128;51.580;5.170;2023-06-14T03:29:10;15.40;91.30
47382;DHT22;33128;51.580;5.170;2023-06-14T03:31:41;15.50;91.30
47382;DHT22;33128;51.580;5.170;2023-06-14T03:34:06;15.50;91.10
47382;DHT22;33128;51.580;5.170;2023-06-14T03:36:32;15.40;91.20
47382;DHT22;33128;51.580;5.170;2023-06-14T03:38:59;15.50;91.50
47382;DHT22;33128;51.580;5.170;2023-06-14T03:41:24;15.30;91.50
47382;DHT22;33128;51.580;5.170;2023-06-14T03:43:51;15.40;91.60
47382;DHT22;33128;51.580;5.170;2023-06-14T03:46:17;15.40;91.80
47382;DHT22;33128;51.580;5.170;2023-06-14T03:48:42;15.40;91.50
47382;DHT22;33128;51.580;5.170;2023-06-14T03:51:08;15.30;91.60
47382;DHT22;33128;51.580;5.170;2023-06-14T03:53:33;15.30;91.60
47382;DHT22;33128;51.580;5.170;2023-06-14T03:56:01;15.40;92.20
47382;DHT22;33128;51.580;5.170;2023-06-14T03:58:29;15.30;92.00
47382;DHT22;33128;51.580;5.170;2023-06-14T04:00:55;15.30;92.70
47382;DHT22;33128;51.580;5.170;2023-06-14T04:03:20;15.30;92.10
47382;DHT22;33128;51.580;5.170;2023-06-14T04:05:50;15.40;92.40
47382;DHT22;33128;51.580;5.170;2023-06-14T04:08:15;15.30;92.10
47382;DHT22;33128;51.580;5.170;2023-06-14T04:10:44;15.40;92.20
47382;DHT22;33128;51.580;5.170;2023-06-14T04:13:10;15.40;92.20
47382;DHT22;33128;51.580;5.170;2023-06-14T04:15:40;15.40;92.30
47382;DHT22;33128;51.580;5.170;2023-06-14T04:18:12;15.40;92.50
47382;DHT22;33128;51.580;5.170;2023-06-14T04:20:38;15.40;92.20
47382;DHT22;33128;51.580;5.170;2023-06-14T04:23:13;15.30;93.00
47382;DHT22;33128;51.580;5.170;2023-06-14T04:25:39;15.40;92.60
47382;DHT22;33128;51.580;5.170;2023-06-14T04:28:05;15.40;92.90
47382;DHT22;33128;51.580;5.170;2023-06-14T04:30:34;15.50;92.70
47382;DHT22;33128;51.580;5.170;2023-06-14T04:33:00;15.40;92.80
47382;DHT22;33128;51.580;5.170;2023-06-14T04:35:26;15.50;93.00
47382;DHT22;33128;51.580;5.170;2023-06-14T04:37:54;15.50;92.80
47382;DHT22;33128;51.580;5.170;2023-06-14T04:40:25;15.50;93.40
47382;DHT22;33128;51.580;5.170;2023-06-14T04:42:51;15.40;93.50
47382;DHT22;33128;51.580;5.170;2023-06-14T04:45:18;15.50;93.20
47382;DHT22;33128;51.580;5.170;2023-06-14T04:47:43;15.50;93.40
47382;DHT22;33128;51.580;5.170;2023-06-14T04:50:10;15.60;93.20
47382;DHT22;33128;51.580;5.170;2023-06-14T04:52:36;15.60;93.40
47382;DHT22;33128;51.580;5.170;2023-06-14T04:55:03;15.60;93.70
47382;DHT22;33128;51.580;5.170;2023-06-14T04:57:28;15.60;93.60
47382;DHT22;33128;51.580;5.170;2023-06-14T04:59:54;15.70;93.50
47382;DHT22;33128;51.580;5.170;2023-06-14T05:02:21;15.80;93.20
47382;DHT22;33128;51.580;5.170;2023-06-14T05:04:47;15.80;93.20
47382;DHT22;33128;51.580;5.170;2023-06-14T05:07:13;15.90;93.20
47382;DHT22;33128;51.580;5.170;2023-06-14T05:09:39;15.90;93.70
47382;DHT22;33128;51.580;5.170;2023-06-14T05:12:05;16.00;93.20
47382;DHT22;33128;51.580;5.170;2023-06-14T05:14:33;16.00;93.40
47382;DHT22;33128;51.580;5.170;2023-06-14T05:16:59;16.00;93.20
47382;DHT22;33128;51.580;5.170;2023-06-14T05:19:24;16.10;93.00
47382;DHT22;33128;51.580;5.170;2023-06-14T05:21:50;16.10;93.10
47382;DHT22;33128;51.580;5.170;2023-06-14T05:24:16;16.20;93.20
47382;DHT22;33128;51.580;5.170;2023-06-14T05:26:45;16.30;93.10
47382;DHT22;33128;51.580;5.170;2023-06-14T05:29:12;16.30;93.20
47382;DHT22;33128;51.580;5.170;2023-06-14T05:31:37;16.30;93.30
47382;DHT22;33128;51.580;5.170;2023-06-14T05:34:03;16.40;93.40
47382;DHT22;33128;51.580;5.170;2023-06-14T05:36:29;16.50;92.90
47382;DHT22;33128;51.580;5.170;2023-06-14T05:39:01;16.50;93.10
47382;DHT22;33128;51.580;5.170;2023-06-14T05:41:28;16.60;92.90
47382;DHT22;33128;51.580;5.170;2023-06-14T05:43:55;16.70;92.50
47382;DHT22;33128;51.580;5.170;2023-06-14T05:46:21;16.80;93.00
47382;DHT22;33128;51.580;5.170;2023-06-14T05:48:50;16.90;92.60
47382;DHT22;33128;51.580;5.170;2023-06-14T05:51:16;17.00;92.30
47382;DHT22;33128;51.580;5.170;2023-06-14T05:53:45;17.20;92.40
47382;DHT22;33128;51.580;5.170;2023-06-14T05:56:11;17.80;93.40
47382;DHT22;33128;51.580;5.170;2023-06-14T05:58:37;18.40;91.70
47382;DHT22;33128;51.580;5.170;2023-06-14T06:01:03;18.50;91.60
47382;DHT22;33128;51.580;5.170;2023-06-14T06:03:28;18.70;91.10
47382;DHT22;33128;51.580;5.170;2023-06-14T06:05:55;18.70;90.80
47382;DHT22;33128;51.580;5.170;2023-06-14T06:08:21;18.50;90.90
47382;DHT22;33128;51.580;5.170;2023-06-14T06:10:46;18.30;91.00
47382;DHT22;33128;51.580;5.170;2023-06-14T06:13:12;18.20;91.30
47382;DHT22;33128;51.580;5.170;2023-06-14T06:15:37;18.20;91.40
47382;DHT22;33128;51.580;5.170;2023-06-14T06:18:03;18.20;91.30
47382;DHT22;33128;51.580;5.170;2023-06-14T06:20:29;18.20;91.50
47382;DHT22;33128;51.580;5.170;2023-06-14T06:22:57;18.30;91.60
47382;DHT22;33128;51.580;5.170;2023-06-14T06:25:23;18.40;91.30
47382;DHT22;33128;51.580;5.170;2023-06-14T06:27:51;18.30;91.30
47382;DHT22;33128;51.580;5.170;2023-06-14T06:30:18;18.40;91.20
47382;DHT22;33128;51.580;5.170;2023-06-14T06:32:43;18.40;91.00
47382;DHT22;33128;51.580;5.170;2023-06-14T06:35:10;18.40;91.20
47382;DHT22;33128;51.580;5.170;2023-06-14T06:37:36;18.50;91.20
47382;DHT22;33128;51.580;5.170;2023-06-14T06:40:02;18.60;91.40
47382;DHT22;33128;51.580;5.170;2023-06-14T06:42:31;18.60;91.30
47382;DHT22;33128;51.580;5.170;2023-06-14T06:44:57;18.60;91.40
47382;DHT22;33128;51.580;5.170;2023-06-14T06:47:22;18.80;91.00
47382;DHT22;33128;51.580;5.170;2023-06-14T06:49:48;18.90;91.00
47382;DHT22;33128;51.580;5.170;2023-06-14T06:52:16;19.20;90.60
47382;DHT22;33128;51.580;5.170;2023-06-14T06:54:42;19.20;90.70
47382;DHT22;33128;51.580;5.170;2023-06-14T06:57:08;19.10;90.60
47382;DHT22;33128;51.580;5.170;2023-06-14T06:59:34;19.10;90.90
47382;DHT22;33128;51.580;5.170;2023-06-14T07:02:00;19.20;90.90
47382;DHT22;33128;51.580;5.170;2023-06-14T07:04:25;19.20;91.00
47382;DHT22;33128;51.580;5.170;2023-06-14T07:06:51;19.40;90.60
47382;DHT22;33128;51.580;5.170;2023-06-14T07:09:17;19.50;90.70
47382;DHT22;33128;51.580;5.170;2023-06-14T07:11:44;19.60;90.70
47382;DHT22;33128;51.580;5.170;2023-06-14T07:14:09;19.80;90.30
47382;DHT22;33128;51.580;5.170;2023-06-14T07:16:35;19.90;90.40
47382;DHT22;33128;51.580;5.170;2023-06-14T07:19:02;20.00;90.30
47382;DHT22;33128;51.580;5.170;2023-06-14T07:21:28;20.10;89.30
47382;DHT22;33128;51.580;5.170;2023-06-14T07:23:54;20.10;89.70
47382;DHT22;33128;51.580;5.170;2023-06-14T07:26:20;20.20;89.60
47382;DHT22;33128;51.580;5.170;2023-06-14T07:28:47;20.30;88.70
47382;DHT22;33128;51.580;5.170;2023-06-14T07:31:13;20.30;89.00
47382;DHT22;33128;51.580;5.170;2023-06-14T07:33:40;20.30;88.60
47382;DHT22;33128;51.580;5.170;2023-06-14T07:36:05;20.40;88.50
47382;DHT22;33128;51.580;5.170;2023-06-14T07:38:31;20.40;88.70
47382;DHT22;33128;51.580;5.170;2023-06-14T07:40:57;20.50;88.20
47382;DHT22;33128;51.580;5.170;2023-06-14T07:43:22;20.60;87.60
47382;DHT22;33128;51.580;5.170;2023-06-14T07:45:48;20.60;88.00
47382;DHT22;33128;51.580;5.170;2023-06-14T07:48:13;20.60;87.50
47382;DHT22;33128;51.580;5.170;2023-06-14T07:50:39;20.70;88.10
47382;DHT22;33128;51.580;5.170;2023-06-14T07:53:05;20.80;88.10
47382;DHT22;33128;51.580;5.170;2023-06-14T07:55:33;20.80;87.50
47382;DHT22;33128;51.580;5.170;2023-06-14T07:58:02;20.90;87.40
47382;DHT22;33128;51.580;5.170;2023-06-14T08:00:31;21.00;87.90
47382;DHT22;33128;51.580;5.170;2023-06-14T08:02:57;21.00;87.00
47382;DHT22;33128;51.580;5.170;2023-06-14T08:05:25;21.10;85.40
47382;DHT22;33128;51.580;5.170;2023-06-14T08:07:51;21.20;86.80
47382;DHT22;33128;51.580;5.170;2023-06-14T08:10:17;21.20;86.40
47382;DHT22;33128;51.580;5.170;2023-06-14T08:12:45;21.30;87.20
47382;DHT22;33128;51.580;5.170;2023-06-14T08:15:11;21.30;86.60
47382;DHT22;33128;51.580;5.170;2023-06-14T08:17:37;21.40;86.70
47382;DHT22;33128;51.580;5.170;2023-06-14T08:20:03;21.40;86.50
47382;DHT22;33128;51.580;5.170;2023-06-14T08:22:32;21.50;86.30
47382;DHT22;33128;51.580;5.170;2023-06-14T08:25:02;21.90;87.20
47382;DHT22;33128;51.580;5.170;2023-06-14T08:27:27;22.10;86.90
47382;DHT22;33128;51.580;5.170;2023-06-14T08:29:53;22.30;86.90
47382;DHT22;33128;51.580;5.170;2023-06-14T08:32:18;22.40;86.80
47382;DHT22;33128;51.580;5.170;2023-06-14T08:34:44;22.50;86.50
47382;DHT22;33128;51.580;5.170;2023-06-14T08:37:10;22.60;86.30
47382;DHT22;33128;51.580;5.170;2023-06-14T08:39:35;22.60;86.10
47382;DHT22;33128;51.580;5.170;2023-06-14T08:42:01;22.60;85.90
47382;DHT22;33128;51.580;5.170;2023-06-14T08:44:28;22.70;85.80
47382;DHT22;33128;51.580;5.170;2023-06-14T08:46:55;22.70;85.60
47382;DHT22;33128;51.580;5.170;2023-06-14T08:49:22;22.70;85.60
47382;DHT22;33128;51.580;5.170;2023-06-14T08:51:48;22.80;85.60
47382;DHT22;33128;51.580;5.170;2023-06-14T08:54:17;22.80;85.50
47382;DHT22;33128;51.580;5.170;2023-06-14T08:56:46;22.90;85.50
47382;DHT22;33128;51.580;5.170;2023-06-14T08:59:13;22.90;85.40
47382;DHT22;33128;51.580;5.170;2023-06-14T09:01:39;22.90;85.30
47382;DHT22;33128;51.580;5.170;2023-06-14T09:04:05;22.90;85.20
47382;DHT22;33128;51.580;5.170;2023-06-14T09:06:33;23.00;85.20
47382;DHT22;33128;51.580;5.170;2023-06-14T09:08:59;23.00;85.20
47382;DHT22;33128;51.580;5.170;2023-06-14T09:11:24;23.00;85.20
47382;DHT22;33128;51.580;5.170;2023-06-14T09:13:51;23.00;85.00
47382;DHT22;33128;51.580;5.170;2023-06-14T09:16:17;23.10;85.00
47382;DHT22;33128;51.580;5.170;2023-06-14T09:18:43;23.10;85.00
47382;DHT22;33128;51.580;5.170;2023-06-14T09:21:10;23.10;84.90
47382;DHT22;33128;51.580;5.170;2023-06-14T09:23:37;23.20;84.90
47382;DHT22;33128;51.580;5.170;2023-06-14T09:26:09;23.20;84.80
47382;DHT22;33128;51.580;5.170;2023-06-14T09:28:35;23.20;84.80
47382;DHT22;33128;51.580;5.170;2023-06-14T09:31:01;23.20;84.70
47382;DHT22;33128;51.580;5.170;2023-06-14T09:33:26;23.30;84.70
47382;DHT22;33128;51.580;5.170;2023-06-14T09:35:54;23.30;84.70
47382;DHT22;33128;51.580;5.170;2023-06-14T09:38:19;23.30;84.60
47382;DHT22;33128;51.580;5.170;2023-06-14T09:40:45;23.30;84.60
47382;DHT22;33128;51.580;5.170;2023-06-14T09:43:11;23.40;84.60
47382;DHT22;33128;51.580;5.170;2023-06-14T09:45:37;23.40;84.50
47382;DHT22;33128;51.580;5.170;2023-06-14T09:48:08;23.40;84.40
47382;DHT22;33128;51.580;5.170;2023-06-14T09:50:34;23.40;84.30
47382;DHT22;33128;51.580;5.170;2023-06-14T09:53:05;23.50;84.30
47382;DHT22;33128;51.580;5.170;2023-06-14T09:55:31;23.50;84.20
47382;DHT22;33128;51.580;5.170;2023-06-14T09:58:04;23.50;84.10
47382;DHT22;33128;51.580;5.170;2023-06-14T10:00:29;23.50;84.00
47382;DHT22;33128;51.580;5.170;2023-06-14T10:02:59;23.50;84.00
47382;DHT22;33128;51.580;5.170;2023-06-14T10:05:26;23.50;83.80
47382;DHT22;33128;51.580;5.170;2023-06-14T10:10:19;23.60;83.80
47382;DHT22;33128;51.580;5.170;2023-06-14T10:12:45;23.60;83.70
47382;DHT22;33128;51.580;5.170;2023-06-14T10:15:12;23.60;83.50
47382;DHT22;33128;51.580;5.170;2023-06-14T10:17:47;23.60;83.60
47382;DHT22;33128;51.580;5.170;2023-06-14T10:22:56;23.60;83.20
47382;DHT22;33128;51.580;5.170;2023-06-14T10:25:29;23.70;83.20
47382;DHT22;33128;51.580;5.170;2023-06-14T10:33:49;23.70;82.90
47382;DHT22;33128;51.580;5.170;2023-06-14T10:36:28;23.70;82.90
47382;DHT22;33128;51.580;5.170;2023-06-14T10:38:59;23.80;82.80
47382;DHT22;33128;51.580;5.170;2023-06-14T10:41:26;23.80;82.80
47382;DHT22;33128;51.580;5.170;2023-06-14T10:43:52;23.80;82.60
47382;DHT22;33128;51.580;5.170;2023-06-14T10:46:19;23.80;82.80
47382;DHT22;33128;51.580;5.170;2023-06-14T10:48:48;23.80;82.70
47382;DHT22;33128;51.580;5.170;2023-06-14T10:51:19;23.90;82.70
47382;DHT22;33128;51.580;5.170;2023-06-14T10:53:46;23.90;82.70
47382;DHT22;33128;51.580;5.170;2023-06-14T10:56:28;24.00;82.70
47382;DHT22;33128;51.580;5.170;2023-06-14T10:58:54;24.00;82.50
47382;DHT22;33128;51.580;5.170;2023-06-14T11:01:38;24.00;82.30
47382;DHT22;33128;51.580;5.170;2023-06-14T11:04:07;24.00;82.40
47382;DHT22;33128;51.580;5.170;2023-06-14T11:06:41;24.10;82.50
47382;DHT22;33128;51.580;5.170;2023-06-14T11:11:44;24.20;82.60
47382;DHT22;33128;51.580;5.170;2023-06-14T11:14:11;24.20;82.70
47382;DHT22;33128;51.580;5.170;2023-06-14T11:16:36;24.30;82.60
47382;DHT22;33128;51.580;5.170;2023-06-14T11:19:02;24.40;82.60
47382;DHT22;33128;51.580;5.170;2023-06-14T11:21:33;24.40;82.60
47382;DHT22;33128;51.580;5.170;2023-06-14T11:23:59;24.50;82.90
47382;DHT22;33128;51.580;5.170;2023-06-14T11:26:30;24.60;82.90
47382;DHT22;33128;51.580;5.170;2023-06-14T11:28:59;24.60;82.90
47382;DHT22;33128;51.580;5.170;2023-06-14T11:31:26;24.70;83.20
47382;DHT22;33128;51.580;5.170;2023-06-14T11:33:56;24.80;82.90
47382;DHT22;33128;51.580;5.170;2023-06-14T11:36:29;25.10;82.80
47382;DHT22;33128;51.580;5.170;2023-06-14T11:39:03;25.30;82.60
47382;DHT22;33128;51.580;5.170;2023-06-14T11:41:54;25.70;82.20
47382;DHT22;33128;51.580;5.170;2023-06-14T11:44:21;26.60;81.30
47382;DHT22;33128;51.580;5.170;2023-06-14T11:46:46;27.60;80.10
47382;DHT22;33128;51.580;5.170;2023-06-14T11:49:12;28.60;78.80
47382;DHT22;33128;51.580;5.170;2023-06-14T11:51:37;29.50;77.10
47382;DHT22;33128;51.580;5.170;2023-06-14T11:54:05;30.40;75.90
47382;DHT22;33128;51.580;5.170;2023-06-14T11:56:32;31.00;74.10
47382;DHT22;33128;51.580;5.170;2023-06-14T11:58:57;31.50;73.60
47382;DHT22;33128;51.580;5.170;2023-06-14T12:01:23;31.80;72.40
47382;DHT22;33128;51.580;5.170;2023-06-14T12:03:50;32.10;71.70
47382;DHT22;33128;51.580;5.170;2023-06-14T12:06:24;32.50;71.00
47382;DHT22;33128;51.580;5.170;2023-06-14T12:08:50;32.70;70.40
47382;DHT22;33128;51.580;5.170;2023-06-14T12:11:16;33.00;69.90
47382;DHT22;33128;51.580;5.170;2023-06-14T12:13:43;33.10;69.50
47382;DHT22;33128;51.580;5.170;2023-06-14T12:16:09;33.40;69.00
47382;DHT22;33128;51.580;5.170;2023-06-14T12:18:37;33.60;68.80
47382;DHT22;33128;51.580;5.170;2023-06-14T12:21:06;33.70;68.70
47382;DHT22;33128;51.580;5.170;2023-06-14T12:23:49;33.90;67.90
47382;DHT22;33128;51.580;5.170;2023-06-14T12:26:16;34.10;67.40
47382;DHT22;33128;51.580;5.170;2023-06-14T12:28:44;34.30;66.90
47382;DHT22;33128;51.580;5.170;2023-06-14T12:31:11;34.50;65.70
47382;DHT22;33128;51.580;5.170;2023-06-14T12:33:38;34.70;66.40
47382;DHT22;33128;51.580;5.170;2023-06-14T12:36:08;34.80;66.70
47382;DHT22;33128;51.580;5.170;2023-06-14T12:38:34;34.90;65.90
47382;DHT22;33128;51.580;5.170;2023-06-14T12:41:00;35.10;66.30
47382;DHT22;33128;51.580;5.170;2023-06-14T12:43:26;35.20;66.10
47382;DHT22;33128;51.580;5.170;2023-06-14T12:45:51;35.30;66.10
47382;DHT22;33128;51.580;5.170;2023-06-14T12:48:17;35.30;65.00
47382;DHT22;33128;51.580;5.170;2023-06-14T12:50:43;35.40;65.00
47382;DHT22;33128;51.580;5.170;2023-06-14T12:53:08;35.70;64.20
47382;DHT22;33128;51.580;5.170;2023-06-14T12:55:34;36.10;63.80
47382;DHT22;33128;51.580;5.170;2023-06-14T12:58:00;36.40;63.30
47382;DHT22;33128;51.580;5.170;2023-06-14T13:00:25;36.30;63.10
47382;DHT22;33128;51.580;5.170;2023-06-14T13:02:54;36.10;63.10
47382;DHT22;33128;51.580;5.170;2023-06-14T13:05:20;36.00;62.90
47382;DHT22;33128;51.580;5.170;2023-06-14T13:07:49;35.90;63.10
47382;DHT22;33128;51.580;5.170;2023-06-14T13:10:15;35.90;62.80
47382;DHT22;33128;51.580;5.170;2023-06-14T13:12:43;35.80;63.10
47382;DHT22;33128;51.580;5.170;2023-06-14T13:15:09;35.80;62.60
47382;DHT22;33128;51.580;5.170;2023-06-14T13:17:37;35.80;62.50
47382;DHT22;33128;51.580;5.170;2023-06-14T13:20:07;35.90;62.50
47382;DHT22;33128;51.580;5.170;2023-06-14T13:22:34;35.90;62.90
47382;DHT22;33128;51.580;5.170;2023-06-14T13:24:59;35.90;63.10
47382;DHT22;33128;51.580;5.170;2023-06-14T13:27:26;35.90;62.70
47382;DHT22;33128;51.580;5.170;2023-06-14T13:29:54;35.90;62.60
47382;DHT22;33128;51.580;5.170;2023-06-14T13:32:21;36.10;79.10
47382;DHT22;33128;51.580;5.170;2023-06-14T13:34:47;35.80;62.20
47382;DHT22;33128;51.580;5.170;2023-06-14T13:37:13;35.80;61.80
47382;DHT22;33128;51.580;5.170;2023-06-14T13:39:39;35.80;61.70
47382;DHT22;33128;51.580;5.170;2023-06-14T13:42:05;35.80;62.00
47382;DHT22;33128;51.580;5.170;2023-06-14T13:44:30;35.80;62.00
47382;DHT22;33128;51.580;5.170;2023-06-14T13:46:56;35.80;61.50
47382;DHT22;33128;51.580;5.170;2023-06-14T13:49:22;35.80;61.70
47382;DHT22;33128;51.580;5.170;2023-06-14T13:51:47;35.70;61.30
47382;DHT22;33128;51.580;5.170;2023-06-14T13:54:14;35.80;62.00
47382;DHT22;33128;51.580;5.170;2023-06-14T13:56:42;35.70;61.50
47382;DHT22;33128;51.580;5.170;2023-06-14T13:59:08;35.70;61.80
47382;DHT22;33128;51.580;5.170;2023-06-14T14:01:34;35.70;62.10
47382;DHT22;33128;51.580;5.170;2023-06-14T14:04:00;35.60;61.90
47382;DHT22;33128;51.580;5.170;2023-06-14T14:06:26;35.60;61.80
47382;DHT22;33128;51.580;5.170;2023-06-14T14:08:52;35.50;62.10
47382;DHT22;33128;51.580;5.170;2023-06-14T14:11:18;35.50;61.60
47382;DHT22;33128;51.580;5.170;2023-06-14T14:13:44;35.50;61.70
47382;DHT22;33128;51.580;5.170;2023-06-14T14:16:10;35.40;61.60
47382;DHT22;33128;51.580;5.170;2023-06-14T14:18:36;35.40;61.70
47382;DHT22;33128;51.580;5.170;2023-06-14T14:21:02;35.30;61.80
47382;DHT22;33128;51.580;5.170;2023-06-14T14:23:28;35.30;61.60
47382;DHT22;33128;51.580;5.170;2023-06-14T14:25:55;35.40;61.90
47382;DHT22;33128;51.580;5.170;2023-06-14T14:28:20;35.30;61.60
47382;DHT22;33128;51.580;5.170;2023-06-14T14:30:46;35.30;61.40
47382;DHT22;33128;51.580;5.170;2023-06-14T14:33:13;35.40;61.50
47382;DHT22;33128;51.580;5.170;2023-06-14T14:35:42;35.40;61.50
47382;DHT22;33128;51.580;5.170;2023-06-14T14:38:08;35.30;61.30
47382;DHT22;33128;51.580;5.170;2023-06-14T14:40:34;35.30;61.30
47382;DHT22;33128;51.580;5.170;2023-06-14T14:43:00;35.10;61.50
47382;DHT22;33128;51.580;5.170;2023-06-14T14:45:25;35.00;61.60
47382;DHT22;33128;51.580;5.170;2023-06-14T14:47:51;34.90;61.40
47382;DHT22;33128;51.580;5.170;2023-06-14T14:50:16;34.70;61.50
47382;DHT22;33128;51.580;5.170;2023-06-14T14:52:45;34.60;62.10
47382;DHT22;33128;51.580;5.170;2023-06-14T14:55:11;34.60;62.50
47382;DHT22;33128;51.580;5.170;2023-06-14T14:57:36;34.50;63.20
47382;DHT22;33128;51.580;5.170;2023-06-14T15:00:03;34.30;62.40
47382;DHT22;33128;51.580;5.170;2023-06-14T15:02:29;34.20;62.50
47382;DHT22;33128;51.580;5.170;2023-06-14T15:04:55;34.10;62.70
47382;DHT22;33128;51.580;5.170;2023-06-14T15:07:26;34.00;62.90
47382;DHT22;33128;51.580;5.170;2023-06-14T15:09:53;33.80;62.50
47382;DHT22;33128;51.580;5.170;2023-06-14T15:12:18;33.70;63.60
47382;DHT22;33128;51.580;5.170;2023-06-14T15:14:45;33.60;63.10
47382;DHT22;33128;51.580;5.170;2023-06-14T15:17:11;33.50;64.50
47382;DHT22;33128;51.580;5.170;2023-06-14T15:19:36;33.40;64.30
47382;DHT22;33128;51.580;5.170;2023-06-14T15:22:02;33.30;64.50
47382;DHT22;33128;51.580;5.170;2023-06-14T15:24:28;33.20;64.90
47382;DHT22;33128;51.580;5.170;2023-06-14T15:26:53;33.20;64.90
47382;DHT22;33128;51.580;5.170;2023-06-14T15:29:19;33.10;65.50
47382;DHT22;33128;51.580;5.170;2023-06-14T15:31:44;33.00;64.50
47382;DHT22;33128;51.580;5.170;2023-06-14T15:34:13;32.90;65.80
47382;DHT22;33128;51.580;5.170;2023-06-14T15:36:38;32.80;65.00
47382;DHT22;33128;51.580;5.170;2023-06-14T15:39:04;32.80;67.30
47382;DHT22;33128;51.580;5.170;2023-06-14T15:41:30;32.70;65.50